createdAt,value
2022-08-04T00:00:01.964Z,5.30
2022-08-04T00:01:02.111Z,7.00
2022-08-04T00:02:02.043Z,6.20
2022-08-04T00:03:01.964Z,6.50
2022-08-04T00:04:01.942Z,6.30
2022-08-04T00:05:01.951Z,7.10
2022-08-04T00:06:01.955Z,6.50
2022-08-04T00:07:01.921Z,7.20
2022-08-04T00:08:01.916Z,8.50
2022-08-04T00:09:01.895Z,9.50
2022-08-04T00:10:01.923Z,9.40
2022-08-04T00:11:01.881Z,7.50
2022-08-04T00:12:01.878Z,9.20
2022-08-04T00:13:01.868Z,8.60
2022-08-04T00:14:03.224Z,7.00
2022-08-04T00:15:01.862Z,8.10
2022-08-04T00:16:01.879Z,9.90
2022-08-04T00:17:01.847Z,7.00
2022-08-04T00:18:01.842Z,6.00
2022-08-04T00:19:01.827Z,8.60
2022-08-04T00:20:02.159Z,7.10
2022-08-04T00:21:01.831Z,6.50
2022-08-04T00:22:01.812Z,6.70
2022-08-04T00:23:01.831Z,7.90
2022-08-04T00:24:11.538Z,7.10
2022-08-04T00:25:01.795Z,7.10
2022-08-04T00:26:01.798Z,7.30
2022-08-04T00:27:01.777Z,9.00
2022-08-04T00:28:01.784Z,7.50
2022-08-04T00:29:01.763Z,7.90
2022-08-04T00:30:01.757Z,6.70
2022-08-04T00:31:01.745Z,5.40
2022-08-04T00:32:01.758Z,8.00
2022-08-04T00:33:01.730Z,7.90
2022-08-04T00:34:01.722Z,6.40
2022-08-04T00:35:01.717Z,7.30
2022-08-04T00:36:01.716Z,9.70
2022-08-04T00:37:01.721Z,7.00
2022-08-04T00:38:01.728Z,7.10
2022-08-04T00:39:01.710Z,6.60
2022-08-04T00:40:01.690Z,6.10
2022-08-04T00:41:01.673Z,8.50
2022-08-04T00:42:01.679Z,6.80
2022-08-04T00:43:01.662Z,5.90
2022-08-04T00:44:01.690Z,5.50
2022-08-04T00:45:01.646Z,6.00
2022-08-04T00:46:14.962Z,6.30
2022-08-04T00:47:02.642Z,8.70
2022-08-04T00:48:01.629Z,6.20
2022-08-04T00:49:01.628Z,8.00
2022-08-04T00:50:01.630Z,6.00
2022-08-04T00:51:01.612Z,6.00
2022-08-04T00:52:31.876Z,7.10
2022-08-04T00:53:02.621Z,8.00
2022-08-04T00:54:01.596Z,7.40
2022-08-04T00:55:03.295Z,8.20
2022-08-04T00:56:02.596Z,6.50
2022-08-04T00:57:01.563Z,7.00
2022-08-04T00:58:01.568Z,7.80
2022-08-04T00:59:01.562Z,7.70
2022-08-04T01:00:01.552Z,7.00
2022-08-04T01:01:01.645Z,7.80
2022-08-04T01:02:01.541Z,8.30
2022-08-04T01:03:01.554Z,7.50
2022-08-04T01:04:01.514Z,7.40
2022-08-04T01:05:01.506Z,6.20
2022-08-04T01:06:01.514Z,6.40
2022-08-04T01:07:01.522Z,8.60
2022-08-04T01:08:01.492Z,5.50
2022-08-04T01:09:01.487Z,7.50
2022-08-04T01:10:01.488Z,6.30
2022-08-04T01:11:01.471Z,6.10
2022-08-04T01:12:01.500Z,6.20
2022-08-04T01:13:01.468Z,7.70
2022-08-04T01:14:01.486Z,7.50
2022-08-04T01:15:01.439Z,8.00
2022-08-04T01:16:01.445Z,7.60
2022-08-04T01:17:01.445Z,8.00
2022-08-04T01:18:01.436Z,7.30
2022-08-04T01:19:01.414Z,9.70
2022-08-04T01:20:01.433Z,6.30
2022-08-04T01:21:01.416Z,8.20
2022-08-04T01:22:01.403Z,6.00
2022-08-04T01:23:01.394Z,8.00
2022-08-04T01:24:01.387Z,6.70
2022-08-04T01:25:02.323Z,6.90
2022-08-04T01:26:01.392Z,5.80
2022-08-04T01:27:01.355Z,6.50
2022-08-04T01:28:01.351Z,6.90
2022-08-04T01:29:01.353Z,5.50
2022-08-04T01:30:01.336Z,5.70
2022-08-04T01:31:01.393Z,6.70
2022-08-04T01:32:01.346Z,6.60
2022-08-04T01:33:01.325Z,7.40
2022-08-04T01:34:04.243Z,6.70
2022-08-04T01:35:01.309Z,5.30
2022-08-04T01:36:01.335Z,8.20
2022-08-04T01:37:01.303Z,5.50
2022-08-04T01:38:01.279Z,7.20
2022-08-04T01:39:01.347Z,6.70
2022-08-04T01:40:01.266Z,6.70
2022-08-04T01:41:01.286Z,5.50
2022-08-04T01:42:01.259Z,5.50
2022-08-04T01:43:01.247Z,7.00
2022-08-04T01:44:01.244Z,6.40
2022-08-04T01:45:01.253Z,7.20
2022-08-04T01:46:01.252Z,7.40
2022-08-04T01:47:01.212Z,7.80
2022-08-04T01:48:01.207Z,8.40
2022-08-04T01:49:01.195Z,8.10
2022-08-04T01:50:01.218Z,7.70
2022-08-04T01:51:01.231Z,7.50
2022-08-04T01:52:01.177Z,7.50
2022-08-04T01:53:01.168Z,8.90
2022-08-04T01:54:01.170Z,6.60
2022-08-04T01:55:01.188Z,7.60
2022-08-04T01:56:01.174Z,6.60
2022-08-04T01:57:01.140Z,8.20
2022-08-04T01:58:02.134Z,7.20
2022-08-04T01:59:01.128Z,8.00
2022-08-04T02:00:01.132Z,8.00
2022-08-04T02:01:01.189Z,8.00
2022-08-04T02:02:01.206Z,6.50
2022-08-04T02:03:01.187Z,8.60
2022-08-04T02:04:19.750Z,7.50
2022-08-04T02:05:02.081Z,7.30
2022-08-04T02:06:03.143Z,5.50
2022-08-04T02:07:01.064Z,8.10
2022-08-04T02:08:01.083Z,6.40
2022-08-04T02:09:01.048Z,6.90
2022-08-04T02:10:01.039Z,8.10
2022-08-04T02:11:01.041Z,6.80
2022-08-04T02:12:01.048Z,9.50
2022-08-04T02:13:01.021Z,5.70
2022-08-04T02:14:01.022Z,7.40
2022-08-04T02:15:01.005Z,7.00
2022-08-04T02:16:01.004Z,5.50
2022-08-04T02:17:01.013Z,5.60
2022-08-04T02:18:00.986Z,6.60
2022-08-04T02:19:00.976Z,7.00
2022-08-04T02:20:00.995Z,6.90
2022-08-04T02:21:00.985Z,7.90
2022-08-04T02:22:00.973Z,6.20
2022-08-04T02:23:00.950Z,7.80
2022-08-04T02:24:00.946Z,7.70
2022-08-04T02:25:00.932Z,6.80
2022-08-04T02:26:00.943Z,5.40
2022-08-04T02:27:00.919Z,6.80
2022-08-04T02:28:01.224Z,7.70
2022-08-04T02:29:00.905Z,8.40
2022-08-04T02:30:00.899Z,6.60
2022-08-04T02:31:00.910Z,6.30
2022-08-04T02:32:00.883Z,9.80
2022-08-04T02:33:00.878Z,6.40
2022-08-04T02:34:00.890Z,6.50
2022-08-04T02:35:00.860Z,6.20
2022-08-04T02:36:02.333Z,6.20
2022-08-04T02:37:00.864Z,7.80
2022-08-04T02:38:00.838Z,8.20
2022-08-04T02:39:00.962Z,7.50
2022-08-04T02:40:00.827Z,9.00
2022-08-04T02:41:00.817Z,6.40
2022-08-04T02:42:00.816Z,7.60
2022-08-04T02:43:00.826Z,8.00
2022-08-04T02:44:00.815Z,8.70
2022-08-04T02:45:00.790Z,6.90
2022-08-04T02:46:00.784Z,7.00
2022-08-04T02:47:00.777Z,7.20
2022-08-04T02:48:28.783Z,8.10
2022-08-04T02:49:01.785Z,7.60
2022-08-04T02:50:00.758Z,8.80
2022-08-04T02:51:00.751Z,6.60
2022-08-04T02:52:00.743Z,8.50
2022-08-04T02:53:00.746Z,6.20
2022-08-04T02:54:00.733Z,7.70
2022-08-04T02:55:00.715Z,9.60
2022-08-04T02:56:00.737Z,7.10
2022-08-04T02:57:00.714Z,5.90
2022-08-04T02:58:00.710Z,7.80
2022-08-04T02:59:00.711Z,7.20
2022-08-04T03:00:00.705Z,6.40
2022-08-04T03:01:00.788Z,6.40
2022-08-04T03:02:00.666Z,7.70
2022-08-04T03:03:00.667Z,6.90
2022-08-04T03:04:00.663Z,7.70
2022-08-04T03:05:00.690Z,9.30
2022-08-04T03:06:01.743Z,6.30
2022-08-04T03:07:00.639Z,8.40
2022-08-04T03:08:00.632Z,7.80
2022-08-04T03:09:00.622Z,6.10
2022-08-04T03:10:00.639Z,7.00
2022-08-04T03:11:00.605Z,8.20
2022-08-04T03:12:00.599Z,6.70
2022-08-04T03:13:00.619Z,6.60
2022-08-04T03:14:00.602Z,9.00
2022-08-04T03:15:00.577Z,8.80
2022-08-04T03:16:00.591Z,7.90
2022-08-04T03:17:00.571Z,7.70
2022-08-04T03:18:00.591Z,7.90
2022-08-04T03:19:00.544Z,7.60
2022-08-04T03:20:00.549Z,6.40
2022-08-04T03:21:00.535Z,8.10
2022-08-04T03:22:00.534Z,6.10
2022-08-04T03:23:13.095Z,6.90
2022-08-04T03:24:01.522Z,6.80
2022-08-04T03:25:00.505Z,8.10
2022-08-04T03:26:00.510Z,8.20
2022-08-04T03:27:00.505Z,7.00
2022-08-04T03:28:00.520Z,7.00
2022-08-04T03:29:00.502Z,8.80
2022-08-04T03:30:00.476Z,5.60
2022-08-04T03:31:00.492Z,6.50
2022-08-04T03:32:00.457Z,6.70
2022-08-04T03:33:00.468Z,6.70
2022-08-04T03:34:00.446Z,7.70
2022-08-04T03:35:00.431Z,8.40
2022-08-04T03:36:00.436Z,7.00
2022-08-04T03:37:00.465Z,7.60
2022-08-04T03:38:00.414Z,6.20
2022-08-04T03:39:00.486Z,7.20
2022-08-04T03:40:00.400Z,7.80
2022-08-04T03:41:00.391Z,7.00
2022-08-04T03:42:04.125Z,9.20
2022-08-04T03:43:00.395Z,7.90
2022-08-04T03:44:00.394Z,6.70
2022-08-04T03:45:00.358Z,5.50
2022-08-04T03:46:00.354Z,7.70
2022-08-04T03:47:00.344Z,7.50
2022-08-04T03:48:00.342Z,6.50
2022-08-04T03:49:00.331Z,8.60
2022-08-04T03:50:00.345Z,9.90
2022-08-04T03:51:00.317Z,7.40
2022-08-04T03:52:00.299Z,6.50
2022-08-04T03:53:00.296Z,7.30
2022-08-04T03:54:00.289Z,7.50
2022-08-04T03:55:00.282Z,7.40
2022-08-04T03:56:00.308Z,7.10
2022-08-04T03:57:00.268Z,7.20
2022-08-04T03:58:00.262Z,8.00
2022-08-04T03:59:00.250Z,7.10
2022-08-04T04:00:00.247Z,9.40
2022-08-04T04:01:00.242Z,7.70
2022-08-04T04:02:02.004Z,7.90
2022-08-04T04:03:01.230Z,8.70
2022-08-04T04:04:00.220Z,10.50
2022-08-04T04:05:00.205Z,7.10
2022-08-04T04:06:02.404Z,7.50
2022-08-04T04:07:00.223Z,9.30
2022-08-04T04:08:02.056Z,11.70
2022-08-04T04:09:00.188Z,10.80
2022-08-04T04:10:05.961Z,8.40
2022-08-04T04:11:01.176Z,8.00
2022-08-04T04:12:00.188Z,8.60
2022-08-04T04:13:00.158Z,6.50
2022-08-04T04:14:00.163Z,7.40
2022-08-04T04:15:00.152Z,8.00
2022-08-04T04:16:00.141Z,6.60
2022-08-04T04:17:00.142Z,9.10
2022-08-04T04:18:00.153Z,9.10
2022-08-04T04:19:00.131Z,7.20
2022-08-04T04:20:00.118Z,8.30
2022-08-04T04:21:00.101Z,9.00
2022-08-04T04:22:00.091Z,9.70
2022-08-04T04:23:00.113Z,7.40
2022-08-04T04:24:00.083Z,10.00
2022-08-04T04:25:00.096Z,8.00
2022-08-04T04:26:00.057Z,8.90
2022-08-04T04:27:00.065Z,7.30
2022-08-04T04:28:43.755Z,7.90
2022-08-04T04:29:03.376Z,10.30
2022-08-04T04:30:00.032Z,7.90
2022-08-04T04:31:00.051Z,8.10
2022-08-04T04:32:00.024Z,8.50
2022-08-04T04:33:00.020Z,6.80
2022-08-04T04:34:00.010Z,8.80
2022-08-04T04:34:59.996Z,10.60
2022-08-04T04:36:00.006Z,7.60
2022-08-04T04:36:59.983Z,7.10
2022-08-04T04:37:59.991Z,8.90
2022-08-04T04:38:59.994Z,7.10
2022-08-04T04:39:59.955Z,9.00
2022-08-04T04:40:59.948Z,8.50
2022-08-04T04:41:59.947Z,10.70
2022-08-04T04:42:59.937Z,9.30
2022-08-04T04:43:59.945Z,9.10
2022-08-04T04:44:59.914Z,8.00
2022-08-04T04:45:59.914Z,8.70
2022-08-04T04:46:59.910Z,8.00
2022-08-04T04:48:07.721Z,11.50
2022-08-04T04:49:00.912Z,7.90
2022-08-04T04:49:59.905Z,9.40
2022-08-04T04:50:59.876Z,7.70
2022-08-04T04:51:59.869Z,7.90
2022-08-04T04:52:59.861Z,9.40
2022-08-04T04:54:00.706Z,9.20
2022-08-04T04:54:59.847Z,7.30
2022-08-04T04:55:59.835Z,7.30
2022-08-04T04:56:59.838Z,9.40
2022-08-04T04:57:59.826Z,10.50
2022-08-04T04:58:59.819Z,8.10
2022-08-04T04:59:59.832Z,8.00
2022-08-04T05:00:59.829Z,7.60
2022-08-04T05:01:59.795Z,10.30
2022-08-04T05:03:01.745Z,7.40
2022-08-04T05:03:59.818Z,8.50
2022-08-04T05:04:59.772Z,8.10
2022-08-04T05:05:59.778Z,8.50
2022-08-04T05:06:59.759Z,10.90
2022-08-04T05:07:59.766Z,10.70
2022-08-04T05:08:59.749Z,9.90
2022-08-04T05:09:59.761Z,8.70
2022-08-04T05:10:59.730Z,9.00
2022-08-04T05:11:59.753Z,7.00
2022-08-04T05:14:35.659Z,7.40
2022-08-04T05:14:35.951Z,10.20
2022-08-04T05:15:00.713Z,8.90
2022-08-04T05:15:59.694Z,8.50
2022-08-04T05:16:59.707Z,6.80
2022-08-04T05:17:59.684Z,9.30
2022-08-04T05:18:59.679Z,8.90
2022-08-04T05:19:59.675Z,7.10
2022-08-04T05:20:59.681Z,7.20
2022-08-04T05:21:59.671Z,10.00
2022-08-04T05:22:59.702Z,8.30
2022-08-04T05:23:59.653Z,9.90
2022-08-04T05:24:59.641Z,8.20
2022-08-04T05:26:00.330Z,13.10
2022-08-04T05:26:59.625Z,11.30
2022-08-04T05:27:59.642Z,9.60
2022-08-04T05:28:59.617Z,11.30
2022-08-04T05:29:59.622Z,9.50
2022-08-04T05:30:59.601Z,8.30
2022-08-04T05:31:59.593Z,10.00
2022-08-04T05:33:00.117Z,10.30
2022-08-04T05:33:59.603Z,8.60
2022-08-04T05:34:59.589Z,8.70
2022-08-04T05:36:20.480Z,8.10
2022-08-04T05:37:00.554Z,10.20
2022-08-04T05:38:01.695Z,8.50
2022-08-04T05:38:59.620Z,11.60
2022-08-04T05:39:59.539Z,7.30
2022-08-04T05:40:59.551Z,8.70
2022-08-04T05:42:04.422Z,8.90
2022-08-04T05:42:59.515Z,9.60
2022-08-04T05:43:59.566Z,7.30
2022-08-04T05:44:59.505Z,7.60
2022-08-04T05:45:59.543Z,6.80
2022-08-04T05:46:59.507Z,10.90
2022-08-04T05:47:59.475Z,7.40
2022-08-04T05:48:59.465Z,7.20
2022-08-04T05:50:02.121Z,9.30
2022-08-04T05:51:01.236Z,9.10
2022-08-04T05:51:59.466Z,9.30
2022-08-04T05:52:59.977Z,8.70
2022-08-04T05:53:59.439Z,9.50
2022-08-04T05:54:59.452Z,7.60
2022-08-04T05:56:00.085Z,8.10
2022-08-04T05:56:59.419Z,6.90
2022-08-04T05:57:59.415Z,7.70
2022-08-04T05:58:59.413Z,8.00
2022-08-04T05:59:59.397Z,11.00
2022-08-04T06:00:59.410Z,11.40
2022-08-04T06:01:59.463Z,8.80
2022-08-04T06:02:59.377Z,7.20
2022-08-04T06:03:59.380Z,8.80
2022-08-04T06:04:59.372Z,6.50
2022-08-04T06:05:59.379Z,6.50
2022-08-04T06:06:59.368Z,9.60
2022-08-04T06:08:04.485Z,9.20
2022-08-04T06:09:00.439Z,7.10
2022-08-04T06:09:59.334Z,7.50
2022-08-04T06:10:59.337Z,9.70
2022-08-04T06:12:04.243Z,9.00
2022-08-04T06:13:00.307Z,7.80
2022-08-04T06:13:59.318Z,9.10
2022-08-04T06:14:59.753Z,8.70
2022-08-04T06:15:59.296Z,8.70
2022-08-04T06:16:59.282Z,10.90
2022-08-04T06:18:33.367Z,8.70
2022-08-04T06:20:03.171Z,10.80
2022-08-04T06:20:18.979Z,8.20
2022-08-04T06:21:00.259Z,10.10
2022-08-04T06:21:59.250Z,10.20
2022-08-04T06:22:59.240Z,10.00
2022-08-04T06:24:04.359Z,7.90
2022-08-04T06:24:59.240Z,10.70
2022-08-04T06:25:59.224Z,9.70
2022-08-04T06:26:59.218Z,8.00
2022-08-04T06:27:59.216Z,8.20
2022-08-04T06:28:59.206Z,10.60
2022-08-04T06:29:59.207Z,7.70
2022-08-04T06:30:59.187Z,8.20
2022-08-04T06:32:30.565Z,7.50
2022-08-04T06:33:04.389Z,8.20
2022-08-04T06:33:59.189Z,10.00
2022-08-04T06:34:59.165Z,7.50
2022-08-04T06:35:59.171Z,6.30
2022-08-04T06:36:59.378Z,7.20
2022-08-04T06:38:01.290Z,8.60
2022-08-04T06:38:59.126Z,6.60
2022-08-04T06:39:59.149Z,10.30
2022-08-04T06:40:59.127Z,9.40
2022-08-04T06:42:14.935Z,9.50
2022-08-04T06:43:00.111Z,6.90
2022-08-04T06:43:59.112Z,11.20
2022-08-04T06:44:59.099Z,10.20
2022-08-04T06:45:59.111Z,9.70
2022-08-04T06:46:59.086Z,7.40
2022-08-04T06:47:59.088Z,8.40
2022-08-04T06:48:59.069Z,7.40
2022-08-04T06:51:24.916Z,8.10
2022-08-04T06:51:27.839Z,6.60
2022-08-04T06:52:00.060Z,7.00
2022-08-04T06:52:59.040Z,6.40
2022-08-04T06:53:59.038Z,8.00
2022-08-04T06:54:59.030Z,7.50
2022-08-04T06:55:59.025Z,8.90
2022-08-04T06:56:59.037Z,7.50
2022-08-04T06:58:02.856Z,8.00
2022-08-04T06:58:58.996Z,6.60
2022-08-04T06:59:59.014Z,8.40
2022-08-04T07:00:58.985Z,9.80
2022-08-04T07:01:59.057Z,5.80
2022-08-04T07:02:58.988Z,8.10
2022-08-04T07:03:58.971Z,8.30
2022-08-04T07:04:59.049Z,9.00
2022-08-04T07:05:58.992Z,7.20
2022-08-04T07:06:59.950Z,7.80
2022-08-04T07:07:59.078Z,8.70
2022-08-04T07:08:58.938Z,7.40
2022-08-04T07:09:58.933Z,6.60
2022-08-04T07:10:58.920Z,8.90
2022-08-04T07:11:58.942Z,9.90
2022-08-04T07:12:58.939Z,9.20
2022-08-04T07:13:58.906Z,8.70
2022-08-04T07:14:58.929Z,8.90
2022-08-04T07:15:58.916Z,5.70
2022-08-04T07:16:58.885Z,11.00
2022-08-04T07:17:58.881Z,8.40
2022-08-04T07:18:58.903Z,6.30
2022-08-04T07:19:59.867Z,8.10
2022-08-04T07:20:58.859Z,7.70
2022-08-04T07:22:17.941Z,8.30
2022-08-04T07:22:59.852Z,7.00
2022-08-04T07:23:58.840Z,9.40
2022-08-04T07:24:58.833Z,9.80
2022-08-04T07:26:11.600Z,6.50
2022-08-04T07:26:59.844Z,7.50
2022-08-04T07:27:58.811Z,7.20
2022-08-04T07:28:58.820Z,8.40
2022-08-04T07:29:58.796Z,9.20
2022-08-04T07:30:58.811Z,7.60
2022-08-04T07:31:58.789Z,10.20
2022-08-04T07:32:58.787Z,8.30
2022-08-04T07:34:16.943Z,6.70
2022-08-04T07:34:58.762Z,8.00
2022-08-04T07:36:04.449Z,7.70
2022-08-04T07:36:58.753Z,9.40
2022-08-04T07:37:58.745Z,7.00
2022-08-04T07:38:58.777Z,7.80
2022-08-04T07:39:58.794Z,8.20
2022-08-04T07:40:58.721Z,9.10
2022-08-04T07:41:58.753Z,6.00
2022-08-04T07:42:58.730Z,8.20
2022-08-04T07:43:58.719Z,11.10
2022-08-04T07:44:58.703Z,10.90
2022-08-04T07:45:58.699Z,7.30
2022-08-04T07:46:58.707Z,9.00
2022-08-04T07:48:04.708Z,7.40
2022-08-04T07:48:59.674Z,6.50
2022-08-04T07:49:58.679Z,7.60
2022-08-04T07:50:58.654Z,7.30
2022-08-04T07:51:58.674Z,10.10
2022-08-04T07:53:15.586Z,7.50
2022-08-04T07:53:59.648Z,7.90
2022-08-04T07:54:58.636Z,11.10
2022-08-04T07:55:58.638Z,10.00
2022-08-04T07:56:58.623Z,7.60
2022-08-04T07:57:58.646Z,8.60
2022-08-04T07:58:58.626Z,8.90
2022-08-04T07:59:58.603Z,8.70
2022-08-04T08:00:58.609Z,7.50
2022-08-04T08:01:58.588Z,9.70
2022-08-04T08:02:58.661Z,6.80
2022-08-04T08:03:58.682Z,9.70
2022-08-04T08:04:58.612Z,6.00
2022-08-04T08:06:31.608Z,8.00
2022-08-04T08:06:59.580Z,7.00
2022-08-04T08:07:58.553Z,7.60
2022-08-04T08:08:58.554Z,7.80
2022-08-04T08:09:58.540Z,7.50
2022-08-04T08:10:58.537Z,8.50
2022-08-04T08:12:36.714Z,8.10
2022-08-04T08:12:59.550Z,7.20
2022-08-04T08:13:58.523Z,8.30
2022-08-04T08:14:58.512Z,10.70
2022-08-04T08:15:58.514Z,7.40
2022-08-04T08:16:58.511Z,7.60
2022-08-04T08:18:00.752Z,8.10
2022-08-04T08:18:58.499Z,6.50
2022-08-04T08:19:58.474Z,7.30
2022-08-04T08:20:58.470Z,8.70
2022-08-04T08:22:00.601Z,8.30
2022-08-04T08:22:58.536Z,6.00
2022-08-04T08:23:58.457Z,8.20
2022-08-04T08:24:58.463Z,7.60
2022-08-04T08:25:58.442Z,7.40
2022-08-04T08:26:58.429Z,8.10
2022-08-04T08:27:58.427Z,7.30
2022-08-04T08:28:58.452Z,6.10
2022-08-04T08:29:58.423Z,7.00
2022-08-04T08:30:59.433Z,6.80
2022-08-04T08:32:02.663Z,6.00
2022-08-04T08:32:59.390Z,6.10
2022-08-04T08:33:58.394Z,7.30
2022-08-04T08:34:58.397Z,6.00
2022-08-04T08:35:58.377Z,5.20
2022-08-04T08:36:58.368Z,5.10
2022-08-04T08:37:58.366Z,5.60
2022-08-04T08:38:58.403Z,5.70
2022-08-04T08:39:58.381Z,7.00
2022-08-04T08:40:58.333Z,9.00
2022-08-04T08:41:58.330Z,7.80
2022-08-04T08:42:58.333Z,7.20
2022-08-04T08:44:04.559Z,8.70
2022-08-04T08:44:59.341Z,8.40
2022-08-04T08:45:58.333Z,9.30
2022-08-04T08:46:58.311Z,6.90
2022-08-04T08:48:06.112Z,8.00
2022-08-04T08:48:59.288Z,11.20
2022-08-04T08:50:03.143Z,5.30
2022-08-04T08:50:58.274Z,8.00
2022-08-04T08:51:58.294Z,7.20
2022-08-04T08:53:02.116Z,6.00
2022-08-04T08:53:58.259Z,6.20
2022-08-04T08:54:58.261Z,6.70
2022-08-04T08:55:58.248Z,4.50
2022-08-04T08:56:58.234Z,6.00
2022-08-04T08:58:00.369Z,5.30
2022-08-04T08:58:58.253Z,6.90
2022-08-04T08:59:58.215Z,4.00
2022-08-04T09:00:58.220Z,8.50
2022-08-04T09:01:58.228Z,7.30
2022-08-04T09:03:04.692Z,8.00
2022-08-04T09:03:59.220Z,5.80
2022-08-04T09:04:58.204Z,4.90
2022-08-04T09:05:58.220Z,4.90
2022-08-04T09:06:58.170Z,7.20
2022-08-04T09:07:58.194Z,5.50
2022-08-04T09:08:58.160Z,4.60
2022-08-04T09:09:58.150Z,7.70
2022-08-04T09:10:58.180Z,5.90
2022-08-04T09:11:58.136Z,6.50
2022-08-04T09:12:58.152Z,4.80
2022-08-04T09:13:58.147Z,7.30
2022-08-04T09:14:58.135Z,6.10
2022-08-04T09:15:58.116Z,5.70
2022-08-04T09:16:58.112Z,5.70
2022-08-04T09:17:58.103Z,5.30
2022-08-04T09:18:58.107Z,6.80
2022-08-04T09:19:58.115Z,6.60
2022-08-04T09:20:58.102Z,6.60
2022-08-04T09:21:58.098Z,6.50
2022-08-04T09:22:58.064Z,5.90
2022-08-04T09:23:58.059Z,5.80
2022-08-04T09:24:58.049Z,6.20
2022-08-04T09:25:58.055Z,6.30
2022-08-04T09:26:59.980Z,5.90
2022-08-04T09:27:59.850Z,4.80
2022-08-04T09:28:58.024Z,6.30
2022-08-04T09:29:58.023Z,8.60
2022-08-04T09:30:58.018Z,6.00
2022-08-04T09:32:07.609Z,6.30
2022-08-04T09:32:59.046Z,6.40
2022-08-04T09:33:57.999Z,6.60
2022-08-04T09:35:04.707Z,7.40
2022-08-04T09:35:59.012Z,5.70
2022-08-04T09:36:57.971Z,6.80
2022-08-04T09:37:57.974Z,6.10
2022-08-04T09:38:57.978Z,5.60
2022-08-04T09:39:57.964Z,6.80
2022-08-04T09:40:58.717Z,6.50
2022-08-04T09:41:57.961Z,7.50
2022-08-04T09:42:57.948Z,5.30
2022-08-04T09:44:49.389Z,4.80
2022-08-04T09:45:05.713Z,4.90
2022-08-04T09:45:57.946Z,10.60
2022-08-04T09:46:59.760Z,4.70
2022-08-04T09:47:57.906Z,5.00
2022-08-04T09:48:57.894Z,5.30
2022-08-04T09:49:57.893Z,5.10
2022-08-04T09:50:57.891Z,5.90
2022-08-04T09:51:59.576Z,8.00
2022-08-04T09:52:57.890Z,3.50
2022-08-04T09:53:57.869Z,5.90
2022-08-04T09:54:57.862Z,5.40
2022-08-04T09:56:01.165Z,5.20
2022-08-04T09:56:58.867Z,6.30
2022-08-04T09:57:57.832Z,7.80
2022-08-04T09:58:57.848Z,6.50
2022-08-04T09:59:57.832Z,5.20
2022-08-04T10:00:57.815Z,5.90
2022-08-04T10:01:59.814Z,6.30
2022-08-04T10:02:57.839Z,5.60
2022-08-04T10:03:57.813Z,3.60
2022-08-04T10:04:57.820Z,4.60
2022-08-04T10:05:57.792Z,6.10
2022-08-04T10:06:57.787Z,6.80
2022-08-04T10:08:00.769Z,6.80
2022-08-04T10:08:58.774Z,7.00
2022-08-04T10:09:57.767Z,7.70
2022-08-04T10:10:57.769Z,5.00
2022-08-04T10:11:57.766Z,5.60
2022-08-04T10:12:57.735Z,4.90
2022-08-04T10:13:57.740Z,7.00
2022-08-04T10:14:57.738Z,3.20
2022-08-04T10:15:57.719Z,4.40
2022-08-04T10:16:57.708Z,6.60
2022-08-04T10:17:57.727Z,3.50
2022-08-04T10:18:57.708Z,4.10
2022-08-04T10:19:58.718Z,6.10
2022-08-04T10:21:02.508Z,3.80
2022-08-04T10:22:27.001Z,4.40
2022-08-04T10:23:11.219Z,6.50
2022-08-04T10:24:00.463Z,4.80
2022-08-04T10:24:57.660Z,3.40
2022-08-04T10:26:06.816Z,4.50
2022-08-04T10:26:58.654Z,3.70
2022-08-04T10:27:57.686Z,3.50
2022-08-04T10:28:57.653Z,4.00
2022-08-04T10:29:57.634Z,6.30
2022-08-04T10:30:57.638Z,4.30
2022-08-04T10:31:57.622Z,4.20
2022-08-04T10:32:57.622Z,3.10
2022-08-04T10:33:57.638Z,4.40
2022-08-04T10:34:57.600Z,8.50
2022-08-04T10:35:57.589Z,4.50
2022-08-04T10:36:57.576Z,3.90
2022-08-04T10:38:01.272Z,4.10
2022-08-04T10:38:57.600Z,4.60
2022-08-04T10:39:57.634Z,2.20
2022-08-04T10:40:57.550Z,3.50
2022-08-04T10:41:59.730Z,7.10
2022-08-04T10:42:57.545Z,4.00
2022-08-04T10:43:57.533Z,3.20
2022-08-04T10:44:58.071Z,2.80
2022-08-04T10:45:58.189Z,3.90
2022-08-04T10:46:57.514Z,3.40
2022-08-04T10:47:57.515Z,3.10
2022-08-04T10:48:57.511Z,4.40
2022-08-04T10:49:57.509Z,3.80
2022-08-04T10:50:57.489Z,4.50
2022-08-04T10:51:59.565Z,4.20
2022-08-04T10:52:57.487Z,3.80
2022-08-04T10:53:57.474Z,4.90
2022-08-04T10:54:57.476Z,4.80
2022-08-04T10:56:06.786Z,3.30
2022-08-04T10:56:58.474Z,5.90
2022-08-04T10:57:57.459Z,6.10
2022-08-04T10:58:57.463Z,5.10
2022-08-04T11:00:00.550Z,4.80
2022-08-04T11:00:58.459Z,3.30
2022-08-04T11:02:02.523Z,5.70
2022-08-04T11:02:58.519Z,3.20
2022-08-04T11:03:57.419Z,3.90
2022-08-04T11:04:57.412Z,5.20
2022-08-04T11:05:57.405Z,2.60
2022-08-04T11:06:57.429Z,3.50
2022-08-04T11:07:57.391Z,2.80
2022-08-04T11:08:57.393Z,9.00
2022-08-04T11:09:57.371Z,4.30
2022-08-04T11:10:57.364Z,5.40
2022-08-04T11:12:00.932Z,3.90
2022-08-04T11:12:57.383Z,4.00
2022-08-04T11:13:57.361Z,3.50
2022-08-04T11:14:57.340Z,4.40
2022-08-04T11:15:57.350Z,2.70
2022-08-04T11:16:57.344Z,4.00
2022-08-04T11:17:57.368Z,2.60
2022-08-04T11:18:57.311Z,3.50
2022-08-04T11:20:12.371Z,3.40
2022-08-04T11:20:58.329Z,3.40
2022-08-04T11:21:57.323Z,5.60
2022-08-04T11:22:57.307Z,3.30
2022-08-04T11:23:57.325Z,5.10
2022-08-04T11:24:57.296Z,5.90
2022-08-04T11:25:57.287Z,5.40
2022-08-04T11:26:57.262Z,4.30
2022-08-04T11:27:57.281Z,6.30
2022-08-04T11:29:03.743Z,4.10
2022-08-04T11:29:58.266Z,4.20
2022-08-04T11:30:57.259Z,4.30
2022-08-04T11:31:57.252Z,4.40
2022-08-04T11:32:57.230Z,3.10
2022-08-04T11:33:57.239Z,5.10
2022-08-04T11:34:57.256Z,4.10
2022-08-04T11:35:57.216Z,4.50
2022-08-04T11:36:57.223Z,3.70
2022-08-04T11:37:57.197Z,4.70
2022-08-04T11:38:57.259Z,4.20
2022-08-04T11:39:57.183Z,4.30
2022-08-04T11:41:02.882Z,4.60
2022-08-04T11:41:58.190Z,3.80
2022-08-04T11:42:57.178Z,4.10
2022-08-04T11:44:01.720Z,5.60
2022-08-04T11:44:58.159Z,6.20
2022-08-04T11:45:57.162Z,4.20
2022-08-04T11:46:57.141Z,3.30
2022-08-04T11:47:57.139Z,3.60
2022-08-04T11:48:57.140Z,4.60
2022-08-04T11:49:58.293Z,4.10
2022-08-04T11:50:57.121Z,3.80
2022-08-04T11:51:57.116Z,3.20
2022-08-04T11:52:57.098Z,5.40
2022-08-04T11:53:57.108Z,4.50
2022-08-04T11:54:57.082Z,5.10
2022-08-04T11:56:09.325Z,3.60
2022-08-04T11:56:58.076Z,4.80
2022-08-04T11:57:57.091Z,4.70
2022-08-04T11:58:57.058Z,5.70
2022-08-04T11:59:57.048Z,4.40
2022-08-04T12:00:58.074Z,4.40
2022-08-04T12:01:57.087Z,4.80
2022-08-04T12:02:57.042Z,6.10
2022-08-04T12:04:03.971Z,4.20
2022-08-04T12:04:58.024Z,2.40
2022-08-04T12:05:57.013Z,4.20
2022-08-04T12:07:15.049Z,3.60
2022-08-04T12:07:56.997Z,4.20
2022-08-04T12:08:56.983Z,3.80
2022-08-04T12:09:56.995Z,6.30
2022-08-04T12:10:57.016Z,5.10
2022-08-04T12:11:56.969Z,4.40
2022-08-04T12:12:56.982Z,3.30
2022-08-04T12:14:00.563Z,5.60
2022-08-04T12:14:56.953Z,4.10
2022-08-04T12:15:56.953Z,3.60
2022-08-04T12:16:56.989Z,4.20
2022-08-04T12:17:56.931Z,2.40
2022-08-04T12:18:56.932Z,6.60
2022-08-04T12:20:04.937Z,6.20
2022-08-04T12:20:57.910Z,5.20
2022-08-04T12:21:57.051Z,3.90
2022-08-04T12:22:56.923Z,4.60
2022-08-04T12:24:00.423Z,3.40
2022-08-04T12:24:56.885Z,3.60
2022-08-04T12:25:56.894Z,4.40
2022-08-04T12:26:56.870Z,3.70
2022-08-04T12:27:56.884Z,4.90
2022-08-04T12:29:12.284Z,4.00
2022-08-04T12:30:57.246Z,3.50
2022-08-04T12:31:04.107Z,3.90
2022-08-04T12:31:57.867Z,4.20
2022-08-04T12:32:56.852Z,4.80
2022-08-04T12:34:04.947Z,3.60
2022-08-04T12:34:57.839Z,3.70
2022-08-04T12:36:10.188Z,5.00
2022-08-04T12:36:57.814Z,3.60
2022-08-04T12:37:56.810Z,4.30
2022-08-04T12:38:56.910Z,3.20
2022-08-04T12:40:29.798Z,4.40
2022-08-04T12:40:57.813Z,2.30
2022-08-04T12:41:56.784Z,3.40
2022-08-04T12:42:59.745Z,4.80
2022-08-04T12:43:56.785Z,2.50
2022-08-04T12:44:56.792Z,4.10
2022-08-04T12:45:56.777Z,2.70
2022-08-04T12:47:27.434Z,3.80
2022-08-04T12:47:56.754Z,5.60
2022-08-04T12:48:56.740Z,4.70
2022-08-04T12:50:00.792Z,4.30
2022-08-04T12:50:56.734Z,2.80
2022-08-04T12:52:08.699Z,3.50
2022-08-04T12:53:02.629Z,5.70
2022-08-04T12:53:57.695Z,4.70
2022-08-04T12:54:56.695Z,4.80
2022-08-04T12:56:01.437Z,4.10
2022-08-04T12:56:57.679Z,5.30
2022-08-04T12:57:56.682Z,3.60
2022-08-04T12:58:56.706Z,4.40
2022-08-04T12:59:58.080Z,4.10
2022-08-04T13:00:56.732Z,4.70
2022-08-04T13:02:08.980Z,4.00
2022-08-04T13:02:56.696Z,4.70
2022-08-04T13:03:56.664Z,3.40
2022-08-04T13:04:56.638Z,4.10
2022-08-04T13:05:57.632Z,5.90
2022-08-04T13:06:56.620Z,3.40
2022-08-04T13:07:56.634Z,4.00
2022-08-04T13:08:56.636Z,4.30
2022-08-04T13:09:56.620Z,4.60
2022-08-04T13:10:56.590Z,5.10
2022-08-04T13:11:56.611Z,3.20
2022-08-04T13:12:56.577Z,5.00
2022-08-04T13:14:10.983Z,4.60
2022-08-04T13:14:57.573Z,4.50
2022-08-04T13:15:57.215Z,3.40